Time;durP1;ratioP1;P1;durP2;ratioP2;P2;SDS_P1;SDS_P2;PMS_P1;PMS_P2;Temp;Humidity;BMP_temperature;BMP_pressure;BME280_temperature;BME280_humidity;BME280_pressure;Samples;Min_cycle;Max_cycle;Signal;HPM_P1;HPM_P2
2023/06/12 11:28:30;;;;;;;12.93;4.72;;;23.90;50.00;;;;;;5111871;27;20468;-60
2023/06/12 11:30:56;;;;;;;13.68;4.82;;;24.10;50.10;;;;;;5069321;22;20046;-56
2023/06/12 11:33:23;;;;;;;18.25;4.90;;;24.10;49.80;;;;;;5010918;28;20021;-56
2023/06/12 11:35:51;;;;;;;13.25;5.40;;;24.10;48.40;;;;;;5027724;28;20400;-53
2023/06/12 11:38:21;;;;;;;13.45;5.05;;;24.10;48.30;;;;;;5028615;28;20018;-58
2023/06/12 11:40:50;;;;;;;23.52;5.80;;;24.10;48.90;;;;;;5029717;28;20029;-56
2023/06/12 11:43:18;;;;;;;16.55;5.22;;;24.20;50.70;;;;;;5028759;28;20022;-58
2023/06/12 11:45:44;;;;;;;13.98;5.15;;;24.20;50.70;;;;;;5028454;28;20060;-56
2023/06/12 11:48:14;;;;;;;11.52;5.40;;;24.30;49.70;;;;;;5026678;28;20030;-57
2023/06/12 11:50:41;;;;;;;12.73;5.30;;;24.30;49.90;;;;;;5028760;28;20211;-55
2023/06/12 11:53:07;;;;;;;20.50;5.47;;;24.30;50.50;;;;;;5028973;28;20028;-59
2023/06/12 11:55:33;;;;;;;19.17;5.70;;;24.30;50.20;;;;;;5028560;28;20026;-59
2023/06/12 11:58:01;;;;;;;20.83;5.30;;;24.30;50.50;;;;;;5028251;28;20030;-59
2023/06/12 12:00:30;;;;;;;12.32;5.93;;;24.30;50.50;;;;;;5028435;28;20022;-56
2023/06/12 12:03:02;;;;;;;16.88;5.18;;;24.30;51.00;;;;;;5028412;28;20550;-58
2023/06/12 12:05:37;;;;;;;30.48;5.93;;;24.30;52.60;;;;;;5029085;28;20026;-57
2023/06/12 12:08:04;;;;;;;15.20;6.20;;;24.30;52.40;;;;;;5029544;28;20042;-59
2023/06/12 12:10:32;;;;;;;11.45;5.30;;;24.30;49.90;;;;;;5045311;28;20397;-59
2023/06/12 12:12:59;;;;;;;15.85;5.63;;;24.30;50.70;;;;;;5030210;28;20036;-59
2023/06/12 12:15:27;;;;;;;19.08;5.63;;;24.30;51.30;;;;;;5030046;28;20033;-58
2023/06/12 12:17:53;;;;;;;11.57;5.00;;;24.20;51.20;;;;;;5029761;28;20404;-59
2023/06/12 12:20:23;;;;;;;9.98;4.75;;;24.20;51.40;;;;;;5029732;28;20029;-59
2023/06/12 12:22:55;;;;;;;11.98;5.55;;;24.20;50.80;;;;;;5028354;28;20044;-59
2023/06/12 12:25:26;;;;;;;10.73;5.80;;;24.20;51.20;;;;;;5028352;28;20026;-59
2023/06/12 12:27:53;;;;;;;9.75;4.90;;;24.20;51.00;;;;;;5025372;28;20037;-59
2023/06/12 12:30:23;;;;;;;12.07;5.90;;;24.20;51.10;;;;;;5016323;28;20025;-59
2023/06/12 12:32:52;;;;;;;11.93;5.82;;;24.20;50.90;;;;;;5016379;28;20026;-55
2023/06/12 12:35:19;;;;;;;15.82;7.72;;;24.20;50.90;;;;;;5016604;28;20153;-58
2023/06/12 12:37:46;;;;;;;16.30;6.30;;;24.20;50.20;;;;;;5015564;28;20480;-55
2023/06/12 12:40:13;;;;;;;11.27;6.18;;;24.10;50.30;;;;;;4981805;28;20483;-56
2023/06/12 12:42:45;;;;;;;15.38;6.30;;;24.20;50.30;;;;;;5031704;28;20053;-58
2023/06/12 12:45:13;;;;;;;15.95;6.70;;;24.20;50.50;;;;;;5015738;28;20087;-56
2023/06/12 12:47:40;;;;;;;13.80;6.25;;;24.20;50.30;;;;;;5015655;28;20032;-55
2023/06/12 12:50:07;;;;;;;15.20;6.15;;;24.20;50.30;;;;;;5015243;28;20045;-58
2023/06/12 12:52:33;;;;;;;13.82;6.30;;;24.20;50.20;;;;;;5015650;28;20042;-57
2023/06/12 12:55:00;;;;;;;10.60;5.93;;;24.20;50.20;;;;;;5015260;28;20105;-57
2023/06/12 12:57:34;;;;;;;13.65;6.55;;;24.20;50.20;;;;;;5015256;28;20475;-58
2023/06/12 13:00:07;;;;;;;10.15;5.28;;;24.20;50.20;;;;;;5014982;28;20045;-55
2023/06/12 13:02:34;;;;;;;14.77;5.70;;;24.20;50.90;;;;;;5015417;28;20484;-57
2023/06/12 13:04:59;;;;;;;13.80;6.10;;;24.20;50.30;;;;;;5015181;28;20033;-58
2023/06/12 13:07:26;;;;;;;12.50;6.32;;;24.20;50.30;;;;;;5015002;28;20405;-58
2023/06/12 13:09:52;;;;;;;15.68;6.00;;;24.20;50.30;;;;;;5015425;28;20503;-58
2023/06/12 13:12:18;;;;;;;10.80;5.68;;;24.20;50.30;;;;;;5015048;28;20034;-58
2023/06/12 13:14:45;;;;;;;10.73;5.50;;;24.20;50.90;;;;;;5014017;28;20033;-58
2023/06/12 13:17:11;;;;;;;10.65;5.55;;;24.20;50.40;;;;;;5014859;28;20038;-57
2023/06/12 13:19:37;;;;;;;13.38;5.75;;;24.10;50.40;;;;;;5014827;28;20025;-57
2023/06/12 13:22:03;;;;;;;9.85;5.43;;;24.10;50.20;;;;;;5014851;28;20022;-56
2023/06/12 13:24:29;;;;;;;10.10;6.05;;;24.10;50.30;;;;;;5014841;28;20022;-58
2023/06/12 13:26:55;;;;;;;13.38;5.70;;;24.10;50.20;;;;;;5014838;28;20117;-58
2023/06/12 13:29:21;;;;;;;14.05;5.93;;;24.10;50.10;;;;;;5014544;28;20049;-57
2023/06/12 13:31:48;;;;;;;9.93;5.55;;;24.10;50.20;;;;;;5030041;28;20030;-58
2023/06/12 13:34:14;;;;;;;10.35;5.72;;;24.10;50.20;;;;;;5014768;28;20061;-58
2023/06/12 13:36:40;;;;;;;9.43;5.13;;;24.10;50.20;;;;;;5014517;28;20094;-55
2023/06/12 13:39:06;;;;;;;11.25;5.25;;;24.10;50.10;;;;;;5014542;28;20030;-56
2023/06/12 13:41:32;;;;;;;9.20;5.05;;;24.10;50.00;;;;;;5013865;28;20080;-57
2023/06/12 13:43:58;;;;;;;8.90;4.95;;;24.10;50.10;;;;;;5014265;28;20029;-57
2023/06/12 13:46:24;;;;;;;12.48;5.43;;;24.10;50.20;;;;;;5014414;28;20022;-55
2023/06/12 13:48:51;;;;;;;9.45;5.50;;;24.10;50.70;;;;;;5013883;28;20053;-57
2023/06/12 13:51:18;;;;;;;8.90;4.82;;;24.20;50.00;;;;;;5014462;28;20061;-57
2023/06/12 13:53:44;;;;;;;9.15;5.13;;;24.10;50.00;;;;;;5014297;28;20037;-58
2023/06/12 13:56:09;;;;;;;8.60;5.47;;;24.10;50.10;;;;;;5014549;28;20029;-58
2023/06/12 13:58:36;;;;;;;11.90;4.63;;;24.10;50.00;;;;;;5014533;28;20029;-55
2023/06/12 14:01:02;;;;;;;11.05;5.07;;;24.10;50.00;;;;;;5014039;28;20451;-57
2023/06/12 14:03:28;;;;;;;10.00;5.00;;;24.10;50.10;;;;;;5014110;28;20025;-56
2023/06/12 14:05:53;;;;;;;6.82;4.57;;;24.10;49.90;;;;;;5014140;28;20030;-57
2023/06/12 14:08:19;;;;;;;9.27;4.63;;;24.10;50.20;;;;;;5013727;28;20041;-58
2023/06/12 14:10:45;;;;;;;8.63;5.13;;;24.10;50.30;;;;;;5013780;28;20033;-56
2023/06/12 14:13:12;;;;;;;8.52;4.68;;;24.20;50.30;;;;;;5013787;28;20069;-56
2023/06/12 14:15:39;;;;;;;8.88;4.82;;;24.10;50.20;;;;;;5013657;28;20025;-54
2023/06/12 14:18:05;;;;;;;9.90;4.93;;;24.20;50.30;;;;;;5013510;28;20037;-58
2023/06/12 14:20:31;;;;;;;7.45;4.90;;;24.10;50.10;;;;;;5013680;28;20051;-58
2023/06/12 14:23:01;;;;;;;8.73;4.57;;;24.20;50.30;;;;;;5013393;28;20516;-58
2023/06/12 14:25:32;;;;;;;7.95;4.47;;;24.10;50.60;;;;;;5013486;28;20022;-58
2023/06/12 14:27:59;;;;;;;7.57;4.78;;;24.20;50.20;;;;;;5013119;28;20026;-57
2023/06/12 14:30:26;;;;;;;11.00;4.93;;;24.20;50.70;;;;;;5013619;28;20084;-58
2023/06/12 14:32:52;;;;;;;8.65;4.82;;;24.20;50.20;;;;;;5013404;28;20188;-55
2023/06/12 14:35:17;;;;;;;7.68;4.63;;;24.20;50.20;;;;;;5013555;28;20521;-56
2023/06/12 14:37:43;;;;;;;9.77;5.07;;;24.20;50.20;;;;;;5012865;28;20030;-58
2023/06/12 14:40:09;;;;;;;7.97;4.40;;;24.20;50.10;;;;;;5013376;28;20030;-58
2023/06/12 14:42:35;;;;;;;10.20;4.60;;;24.10;50.10;;;;;;5013816;28;20084;-58
2023/06/12 14:45:01;;;;;;;8.52;4.50;;;24.20;50.20;;;;;;5013625;28;20034;-58
2023/06/12 14:47:27;;;;;;;6.38;4.30;;;24.10;50.10;;;;;;5013538;28;20026;-58
2023/06/12 14:49:53;;;;;;;7.88;4.53;;;24.10;49.80;;;;;;5013634;28;20125;-57
2023/06/12 14:52:18;;;;;;;9.68;4.35;;;24.20;50.00;;;;;;5013493;28;20030;-58
2023/06/12 14:54:44;;;;;;;8.30;4.63;;;24.10;49.80;;;;;;5013748;28;20348;-55
2023/06/12 14:57:10;;;;;;;7.25;4.35;;;24.10;49.80;;;;;;5013313;28;20046;-58
2023/06/12 14:59:36;;;;;;;7.35;4.25;;;24.10;49.70;;;;;;5013188;28;20021;-58
2023/06/12 15:02:02;;;;;;;7.07;4.47;;;24.10;49.90;;;;;;5013242;28;20026;-58
2023/06/12 15:04:27;;;;;;;8.65;4.97;;;24.20;49.80;;;;;;5013359;28;20026;-58
2023/06/12 15:06:53;;;;;;;6.20;4.53;;;24.10;49.80;;;;;;5012956;28;20352;-57
2023/06/12 15:09:19;;;;;;;7.72;4.28;;;24.10;49.60;;;;;;5012842;28;20510;-58
2023/06/12 15:11:45;;;;;;;7.82;4.50;;;24.10;49.60;;;;;;5013211;28;20045;-58
2023/06/12 15:14:11;;;;;;;8.60;4.30;;;24.10;49.70;;;;;;5013456;28;20049;-58
2023/06/12 15:16:37;;;;;;;7.55;4.38;;;24.20;50.00;;;;;;5013119;28;20032;-56
2023/06/12 15:19:02;;;;;;;6.28;4.10;;;24.10;49.70;;;;;;5012093;28;20058;-56
2023/06/12 15:21:28;;;;;;;6.13;4.20;;;24.20;49.70;;;;;;5013330;28;20029;-58
2023/06/12 15:23:54;;;;;;;8.82;4.40;;;24.10;49.80;;;;;;5013341;28;20061;-59
2023/06/12 15:26:20;;;;;;;6.72;4.22;;;24.10;49.50;;;;;;5013168;28;20048;-57
2023/06/12 15:28:46;;;;;;;6.57;3.88;;;24.10;49.70;;;;;;5012857;28;20088;-58
2023/06/12 15:31:11;;;;;;;8.38;4.30;;;24.10;49.80;;;;;;5011722;28;20038;-58
2023/06/12 15:33:37;;;;;;;8.15;4.50;;;24.10;49.70;;;;;;5013143;28;20029;-58
2023/06/12 15:36:04;;;;;;;6.45;4.07;;;24.10;49.70;;;;;;5012814;28;20459;-58
2023/06/12 15:38:47;;;;;;;9.48;4.70;;;24.10;49.80;;;;;;5013179;28;20523;-57
2023/06/12 15:41:13;;;;;;;6.97;4.32;;;24.10;49.50;;;;;;5013090;28;20029;-55
2023/06/12 15:43:40;;;;;;;6.72;4.13;;;24.20;49.80;;;;;;5013465;28;20397;-58
2023/06/12 15:46:07;;;;;;;7.32;4.20;;;24.20;49.90;;;;;;5013702;28;20030;-58
2023/06/12 15:48:33;;;;;;;10.07;3.97;;;24.10;50.10;;;;;;5012661;28;20029;-57
2023/06/12 15:50:59;;;;;;;7.13;4.18;;;24.20;50.10;;;;;;5013215;28;20033;-58
2023/06/12 15:53:26;;;;;;;7.78;4.40;;;24.20;49.90;;;;;;5012172;28;20037;-58
2023/06/12 15:55:52;;;;;;;7.80;4.57;;;24.20;49.80;;;;;;5013308;28;20041;-58
2023/06/12 15:58:18;;;;;;;8.85;5.13;;;24.10;49.80;;;;;;5012705;28;20030;-58
2023/06/12 16:00:44;;;;;;;8.82;5.07;;;24.20;50.00;;;;;;5013309;28;20101;-57
2023/06/12 16:03:09;;;;;;;7.97;4.40;;;24.10;49.90;;;;;;5014124;28;20045;-58
2023/06/12 16:05:36;;;;;;;9.70;4.95;;;24.10;49.90;;;;;;5016808;28;20026;-58
2023/06/12 16:08:02;;;;;;;9.07;5.35;;;24.20;49.90;;;;;;5016436;28;20108;-58
2023/06/12 16:10:28;;;;;;;11.35;5.82;;;24.20;49.90;;;;;;5016413;28;20033;-58
2023/06/12 16:12:54;;;;;;;12.35;5.72;;;24.20;49.90;;;;;;5016362;28;20025;-58
2023/06/12 16:15:20;;;;;;;10.23;6.05;;;24.10;49.80;;;;;;5015543;28;20034;-58
2023/06/12 16:17:46;;;;;;;11.32;6.20;;;24.20;49.90;;;;;;5016220;28;20531;-58
2023/06/12 16:20:12;;;;;;;12.77;6.35;;;24.20;49.90;;;;;;5016970;28;20034;-58
2023/06/12 16:22:39;;;;;;;10.93;5.57;;;24.20;49.90;;;;;;5015553;28;20030;-58
2023/06/12 16:25:05;;;;;;;11.07;5.60;;;24.20;49.70;;;;;;5016589;28;20026;-56
2023/06/12 16:27:32;;;;;;;10.05;6.32;;;24.20;49.70;;;;;;5016407;28;20147;-58
2023/06/12 16:29:58;;;;;;;10.75;5.93;;;24.20;49.60;;;;;;5016428;28;20068;-58
2023/06/12 16:32:24;;;;;;;11.63;6.50;;;24.20;50.20;;;;;;5016343;28;20037;-58
2023/06/12 16:34:50;;;;;;;11.05;5.88;;;24.20;49.70;;;;;;5015964;28;20033;-58
2023/06/12 16:37:19;;;;;;;17.50;6.95;;;24.10;49.60;;;;;;5014519;28;20493;-58
2023/06/12 16:39:49;;;;;;;14.57;7.03;;;24.20;50.60;;;;;;5014926;28;20022;-58
2023/06/12 16:42:16;;;;;;;;;;;24.20;50.70;;;;;;5016051;28;20049;-56
2023/06/12 16:44:42;;;;;;;23.10;6.93;;;24.30;51.70;;;;;;5015184;28;19910;-58
2023/06/12 16:47:08;;;;;;;30.70;7.55;;;24.30;51.40;;;;;;5013452;28;20030;-58
2023/06/12 16:49:34;;;;;;;23.75;7.95;;;24.30;51.20;;;;;;5015365;28;20030;-58
2023/06/12 16:51:59;;;;;;;16.52;7.13;;;24.30;51.20;;;;;;5015447;28;20026;-58
2023/06/12 16:54:25;;;;;;;11.70;6.43;;;24.20;51.90;;;;;;5015707;28;20034;-58
2023/06/12 16:56:53;;;;;;;18.30;7.03;;;24.20;51.40;;;;;;5015011;28;20057;-58
2023/06/12 16:59:19;;;;;;;13.70;6.63;;;24.30;51.10;;;;;;5015139;28;20109;-59
2023/06/12 17:01:45;;;;;;;14.82;6.90;;;24.20;51.20;;;;;;5015512;28;20079;-58
2023/06/12 17:04:11;;;;;;;12.70;7.35;;;24.20;51.00;;;;;;5015588;28;20488;-59
2023/06/12 17:06:36;;;;;;;17.08;7.10;;;24.20;51.60;;;;;;5014988;28;20036;-58
2023/06/12 17:09:03;;;;;;;17.77;6.70;;;24.20;50.80;;;;;;5014835;28;20033;-58
2023/06/12 17:11:28;;;;;;;13.07;6.97;;;24.20;50.90;;;;;;5030197;28;20386;-58
2023/06/12 17:13:55;;;;;;;15.35;7.47;;;24.20;50.80;;;;;;5030106;28;20109;-58
2023/06/12 17:16:21;;;;;;;15.32;7.65;;;24.20;50.90;;;;;;5014813;28;20064;-59
2023/06/12 17:18:46;;;;;;;17.33;7.38;;;24.20;50.80;;;;;;5014403;28;20022;-59
2023/06/12 17:21:12;;;;;;;15.68;7.43;;;24.20;50.80;;;;;;5014774;28;20504;-58
2023/06/12 17:23:38;;;;;;;13.82;7.38;;;24.20;50.70;;;;;;5014957;28;20030;-59
2023/06/12 17:26:05;;;;;;;13.32;7.40;;;24.20;50.70;;;;;;5014532;28;20026;-56
2023/06/12 17:28:31;;;;;;;14.70;7.47;;;24.20;50.70;;;;;;5014301;28;20080;-58
2023/06/12 17:30:58;;;;;;;15.80;7.25;;;24.20;50.60;;;;;;5025852;23;20054;-54
2023/06/12 17:33:23;;;;;;;14.43;7.72;;;24.20;50.50;;;;;;5013181;28;20129;-54
2023/06/12 17:35:49;;;;;;;15.38;7.40;;;24.20;50.50;;;;;;5013411;28;20104;-57
2023/06/12 17:38:15;;;;;;;12.93;7.20;;;24.20;50.60;;;;;;5012817;28;20025;-59
2023/06/12 17:40:41;;;;;;;13.45;7.35;;;24.20;50.40;;;;;;5013425;28;20065;-55
2023/06/12 17:43:08;;;;;;;12.90;7.35;;;24.20;50.50;;;;;;5013489;28;20401;-56
2023/06/12 17:45:34;;;;;;;15.40;7.97;;;24.20;50.50;;;;;;5013375;28;20022;-57
2023/06/12 17:47:59;;;;;;;16.02;7.05;;;24.20;50.50;;;;;;5012819;28;20038;-57
2023/06/12 17:50:25;;;;;;;17.10;7.65;;;24.20;50.30;;;;;;5012772;28;20022;-54
2023/06/12 17:52:51;;;;;;;13.45;7.55;;;24.20;50.40;;;;;;5013010;28;20029;-57
2023/06/12 17:55:17;;;;;;;12.95;7.47;;;24.20;50.10;;;;;;5012994;28;20053;-58
2023/06/12 17:57:43;;;;;;;13.05;7.28;;;24.20;50.30;;;;;;5012568;28;20034;-59
2023/06/12 18:00:09;;;;;;;13.30;7.15;;;24.20;50.00;;;;;;5012836;28;20033;-56
2023/06/12 18:02:35;;;;;;;11.75;6.80;;;24.20;50.10;;;;;;5012879;28;20025;-57
2023/06/12 18:05:01;;;;;;;12.57;7.00;;;24.20;50.10;;;;;;5012963;28;20029;-58
2023/06/12 18:07:27;;;;;;;11.77;7.28;;;24.20;50.10;;;;;;5011630;28;20108;-59
2023/06/12 18:09:52;;;;;;;12.75;7.20;;;24.20;50.20;;;;;;5012727;28;20121;-59
2023/06/12 18:12:18;;;;;;;13.52;7.32;;;24.20;50.10;;;;;;5012803;28;20101;-55
2023/06/12 18:14:45;;;;;;;15.35;7.57;;;24.20;50.20;;;;;;5012764;28;20543;-54
2023/06/12 18:17:13;;;;;;;11.32;6.20;;;24.20;50.00;;;;;;5012214;28;20029;-58
2023/06/12 18:19:39;;;;;;;13.15;7.15;;;24.20;50.00;;;;;;5012690;28;20025;-57
2023/06/12 18:22:05;;;;;;;18.15;7.53;;;24.20;50.10;;;;;;5012850;28;20079;-60
2023/06/12 18:24:31;;;;;;;12.23;7.18;;;24.20;49.90;;;;;;5012553;28;20030;-58
2023/06/12 18:26:57;;;;;;;10.80;6.65;;;24.20;49.90;;;;;;5011718;28;20038;-59
2023/06/12 18:29:23;;;;;;;12.85;6.80;;;24.20;50.60;;;;;;5012490;28;20034;-59
2023/06/12 18:31:49;;;;;;;13.93;7.07;;;24.20;50.00;;;;;;5012187;28;20038;-55
2023/06/12 18:34:15;;;;;;;13.90;6.97;;;24.20;50.00;;;;;;5012535;28;20112;-58
2023/06/12 18:36:42;;;;;;;12.75;7.13;;;24.20;49.90;;;;;;5012049;28;20137;-59
2023/06/12 18:39:09;;;;;;;10.90;7.00;;;24.10;49.90;;;;;;5012488;28;20029;-56
2023/06/12 18:41:34;;;;;;;10.80;6.53;;;24.20;49.90;;;;;;5012262;28;20030;-58
2023/06/12 18:44:04;;;;;;;13.43;6.38;;;24.20;50.00;;;;;;5012290;28;20033;-56
2023/06/12 18:46:31;;;;;;;11.85;7.15;;;24.10;49.90;;;;;;5012165;28;20033;-58
2023/06/12 18:48:57;;;;;;;14.60;6.68;;;24.20;50.00;;;;;;5011908;28;20084;-55
2023/06/12 18:51:22;;;;;;;12.10;6.78;;;24.20;50.00;;;;;;5012143;28;20029;-56
2023/06/12 18:53:48;;;;;;;14.70;7.20;;;24.10;49.80;;;;;;5012460;28;20030;-54
2023/06/12 18:56:14;;;;;;;12.15;6.78;;;24.20;49.90;;;;;;5013256;28;20421;-56
2023/06/12 18:58:40;;;;;;;10.02;6.28;;;24.20;49.90;;;;;;5013314;28;20030;-58
2023/06/12 19:01:06;;;;;;;11.18;6.47;;;24.20;50.00;;;;;;5012687;28;20026;-59
2023/06/12 19:03:32;;;;;;;10.48;6.30;;;24.20;49.90;;;;;;5013391;28;20088;-59
2023/06/12 19:05:58;;;;;;;13.02;6.90;;;24.20;49.90;;;;;;5012772;28;20104;-57
2023/06/12 19:08:24;;;;;;;10.80;6.63;;;24.20;49.90;;;;;;5012920;28;20135;-60
2023/06/12 19:10:49;;;;;;;12.20;7.30;;;24.20;50.00;;;;;;5013899;28;20025;-59
2023/06/12 19:13:15;;;;;;;10.85;6.18;;;24.20;49.90;;;;;;5012944;28;20072;-59
2023/06/12 19:15:41;;;;;;;12.23;6.50;;;24.20;49.90;;;;;;5013084;28;20018;-59
2023/06/12 19:18:07;;;;;;;12.48;6.57;;;24.20;50.00;;;;;;5012497;28;20038;-59
2023/06/12 19:20:34;;;;;;;10.55;6.82;;;24.20;50.50;;;;;;5013014;28;20501;-59
2023/06/12 19:23:01;;;;;;;10.57;6.25;;;24.20;49.90;;;;;;5016956;28;20487;-58
2023/06/12 19:25:27;;;;;;;12.35;6.60;;;24.20;49.90;;;;;;5017884;28;20025;-59
2023/06/12 19:27:53;;;;;;;9.63;5.93;;;24.20;49.80;;;;;;5019937;28;20037;-58
2023/06/12 19:30:19;;;;;;;11.38;6.35;;;24.20;49.80;;;;;;5016905;28;20033;-59
2023/06/12 19:32:45;;;;;;;12.30;6.40;;;24.20;49.80;;;;;;5016623;28;20038;-58
2023/06/12 19:35:11;;;;;;;10.88;6.53;;;24.20;49.80;;;;;;5015897;28;20440;-56
2023/06/12 19:37:37;;;;;;;11.20;6.45;;;24.20;49.70;;;;;;5011105;28;20100;-55
2023/06/12 19:40:04;;;;;;;10.43;6.30;;;24.20;49.80;;;;;;5016094;28;20076;-55
2023/06/12 19:42:30;;;;;;;11.77;6.20;;;24.10;49.70;;;;;;5016259;28;20116;-55
2023/06/12 19:44:55;;;;;;;9.40;5.57;;;24.20;49.80;;;;;;5015896;28;20057;-59
2023/06/12 19:47:22;;;;;;;12.07;6.43;;;24.10;49.80;;;;;;5016081;28;20064;-58
2023/06/12 19:49:48;;;;;;;12.93;6.53;;;24.20;49.80;;;;;;5015931;28;20034;-58
2023/06/12 19:52:14;;;;;;;12.40;6.65;;;24.20;49.80;;;;;;5016008;28;20034;-55
2023/06/12 19:54:41;;;;;;;10.65;6.10;;;24.20;49.80;;;;;;5015841;28;20064;-56
2023/06/12 19:57:07;;;;;;;9.77;6.05;;;24.10;49.80;;;;;;5016197;28;20026;-54
2023/06/12 19:59:37;;;;;;;9.60;5.88;;;24.10;49.70;;;;;;5015870;28;20401;-56
2023/06/12 20:02:05;;;;;;;9.75;6.20;;;24.10;49.60;;;;;;5016443;28;20033;-58
2023/06/12 20:04:36;;;;;;;10.40;5.68;;;24.20;49.80;;;;;;5015004;28;20046;-57
2023/06/12 20:07:03;;;;;;;9.48;5.63;;;24.10;49.60;;;;;;5015377;28;20045;-51
2023/06/12 20:09:30;;;;;;;10.10;5.78;;;24.20;49.70;;;;;;5016764;28;20041;-54
2023/06/12 20:11:56;;;;;;;10.35;5.88;;;24.10;50.20;;;;;;5015765;28;20037;-57
2023/06/12 20:14:21;;;;;;;10.57;5.80;;;24.20;49.80;;;;;;5016012;28;20030;-56
2023/06/12 20:16:48;;;;;;;9.43;6.32;;;24.20;49.60;;;;;;5014285;28;20894;-57
2023/06/12 20:19:14;;;;;;;9.65;5.88;;;24.20;49.70;;;;;;5015605;28;20026;-58
2023/06/12 20:21:40;;;;;;;9.80;5.50;;;24.20;49.60;;;;;;5015373;28;20029;-54
2023/06/12 20:24:08;;;;;;;8.85;5.50;;;24.20;49.50;;;;;;5015775;28;20053;-57
2023/06/12 20:26:37;;;;;;;9.73;5.68;;;24.20;49.50;;;;;;5015173;28;20025;-58
2023/06/12 20:29:05;;;;;;;8.45;5.85;;;24.20;49.60;;;;;;5014991;28;20491;-55
2023/06/12 20:31:32;;;;;;;10.55;5.90;;;24.20;49.60;;;;;;5013814;28;20033;-57
2023/06/12 20:33:58;;;;;;;7.97;5.43;;;24.10;49.40;;;;;;5014979;28;20489;-54
2023/06/12 20:36:24;;;;;;;9.43;5.15;;;24.20;49.50;;;;;;5014711;28;20088;-53
2023/06/12 20:38:49;;;;;;;8.82;5.68;;;24.20;49.60;;;;;;5014443;28;20057;-58
2023/06/12 20:41:17;;;;;;;9.65;5.43;;;24.10;49.50;;;;;;5014538;28;20026;-53
2023/06/12 20:43:43;;;;;;;8.88;5.40;;;24.10;49.50;;;;;;5014656;28;20026;-57
2023/06/12 20:46:08;;;;;;;8.10;5.07;;;24.20;49.60;;;;;;5014658;28;20028;-57
2023/06/12 20:48:35;;;;;;;8.82;5.40;;;24.10;49.50;;;;;;5013510;28;20105;-58
2023/06/12 20:51:03;;;;;;;10.88;5.20;;;24.20;49.40;;;;;;5014498;28;20037;-53
2023/06/12 20:53:33;;;;;;;7.80;5.28;;;24.20;49.50;;;;;;5014427;28;20026;-57
2023/06/12 20:55:59;;;;;;;9.48;5.07;;;24.20;49.50;;;;;;5014325;28;20109;-58
2023/06/12 20:58:25;;;;;;;8.88;4.88;;;24.20;49.50;;;;;;5014013;28;20551;-58
2023/06/12 21:00:51;;;;;;;8.43;4.78;;;24.20;49.40;;;;;;5014218;28;20065;-57
2023/06/12 21:03:17;;;;;;;8.50;4.97;;;24.20;49.40;;;;;;5014188;28;20053;-58
2023/06/12 21:05:43;;;;;;;8.48;4.75;;;24.20;49.40;;;;;;5014184;28;20282;-57
2023/06/12 21:08:09;;;;;;;9.32;5.10;;;24.20;50.00;;;;;;5013789;28;20033;-55
2023/06/12 21:10:35;;;;;;;8.50;5.05;;;24.20;49.40;;;;;;5014415;28;20370;-56
2023/06/12 21:13:05;;;;;;;9.20;5.03;;;24.20;49.40;;;;;;5014013;28;20030;-57
2023/06/12 21:15:30;;;;;;;8.63;5.00;;;24.20;49.50;;;;;;5014070;28;20486;-57
2023/06/12 21:17:56;;;;;;;7.75;4.85;;;24.20;49.30;;;;;;5013477;28;20040;-57
2023/06/12 21:20:25;;;;;;;6.72;4.50;;;24.10;49.30;;;;;;5013719;28;20029;-56
2023/06/12 21:22:51;;;;;;;10.57;5.00;;;24.20;49.30;;;;;;5013798;28;20032;-56
2023/06/12 21:25:18;;;;;;;7.78;4.65;;;24.20;49.30;;;;;;5013688;28;20029;-55
2023/06/12 21:27:44;;;;;;;7.35;4.78;;;24.20;49.30;;;;;;5013345;28;20184;-59
2023/06/12 21:30:11;;;;;;;7.30;4.60;;;24.20;49.30;;;;;;5012243;28;20568;-55
2023/06/12 21:32:36;;;;;;;6.65;4.53;;;24.20;49.30;;;;;;5013739;28;20485;-54
2023/06/12 21:35:04;;;;;;;7.28;4.47;;;24.20;49.20;;;;;;5013788;28;20037;-57
2023/06/12 21:37:30;;;;;;;10.45;4.30;;;24.20;49.20;;;;;;4995636;28;20038;-59
2023/06/12 21:39:56;;;;;;;20.58;4.65;;;24.10;48.40;;;;;;5013407;28;20504;-54
2023/06/12 21:42:23;;;;;;;13.27;4.45;;;24.10;48.10;;;;;;5013591;28;20034;-53
2023/06/12 21:44:49;;;;;;;6.95;4.15;;;24.20;48.20;;;;;;5013320;28;20034;-55
2023/06/12 21:47:15;;;;;;;12.48;4.05;;;24.20;48.50;;;;;;5013022;28;20030;-58
2023/06/12 21:49:42;;;;;;;13.88;4.72;;;24.20;48.70;;;;;;5012012;28;20040;-58
2023/06/12 21:52:08;;;;;;;5.97;4.07;;;24.20;48.90;;;;;;5013222;28;20034;-60
2023/06/12 21:54:33;;;;;;;8.98;4.28;;;24.20;48.90;;;;;;5012015;28;20025;-59
2023/06/12 21:56:59;;;;;;;7.57;4.45;;;24.20;48.90;;;;;;5012961;28;20084;-55
2023/06/12 21:59:25;;;;;;;11.93;4.10;;;24.20;49.20;;;;;;5012978;28;20109;-56
2023/06/12 22:01:51;;;;;;;17.40;4.63;;;24.20;49.00;;;;;;5012233;28;20478;-56
2023/06/12 22:04:17;;;;;;;16.10;4.75;;;24.20;49.20;;;;;;5012913;28;20058;-59
2023/06/12 22:06:43;;;;;;;16.77;4.82;;;24.20;49.90;;;;;;5012679;28;20472;-58
2023/06/12 22:09:09;;;;;;;20.10;4.90;;;24.20;49.30;;;;;;5009102;28;20037;-57
2023/06/12 22:11:35;;;;;;;13.70;3.78;;;24.20;49.30;;;;;;5012940;28;20412;-58
2023/06/12 22:14:02;;;;;;;13.27;4.15;;;24.20;49.30;;;;;;5028638;28;20025;-58
2023/06/12 22:16:28;;;;;;;10.07;3.63;;;24.20;49.40;;;;;;5023390;28;20042;-55
2023/06/12 22:18:55;;;;;;;13.95;4.05;;;24.20;49.30;;;;;;5023172;28;20032;-57
2023/06/12 22:21:21;;;;;;;13.75;4.38;;;24.20;49.50;;;;;;5011543;28;20022;-57
2023/06/12 22:23:46;;;;;;;15.02;4.28;;;24.20;49.40;;;;;;5025602;28;20122;-58
2023/06/12 22:26:12;;;;;;;12.07;4.05;;;24.20;49.50;;;;;;5011181;28;20040;-56
2023/06/12 22:28:38;;;;;;;12.52;4.53;;;24.30;49.60;;;;;;5010504;28;20085;-58
2023/06/12 22:31:04;;;;;;;9.88;3.55;;;24.20;49.60;;;;;;5019209;28;20049;-55
2023/06/12 22:33:30;;;;;;;8.35;3.70;;;24.20;49.70;;;;;;5024338;28;20404;-58
2023/06/12 22:35:57;;;;;;;10.75;4.35;;;24.30;49.70;;;;;;5028195;28;20034;-57
2023/06/12 22:38:23;;;;;;;14.07;4.15;;;24.20;49.70;;;;;;5010369;28;20204;-58
2023/06/12 22:40:48;;;;;;;11.18;4.10;;;24.20;49.80;;;;;;5011553;28;20022;-57
2023/06/12 22:43:15;;;;;;;11.25;4.13;;;24.20;49.70;;;;;;5009711;28;20025;-56
2023/06/12 22:45:42;;;;;;;9.90;3.83;;;24.30;49.90;;;;;;5011726;28;20461;-59
2023/06/12 22:48:08;;;;;;;8.45;4.13;;;24.30;49.90;;;;;;5011705;28;20034;-52
2023/06/12 22:50:35;;;;;;;14.55;3.97;;;24.30;50.00;;;;;;5011371;28;20030;-55
2023/06/12 22:53:03;;;;;;;11.00;4.00;;;24.30;50.00;;;;;;5011868;28;20029;-53
2023/06/12 22:55:29;;;;;;;13.23;3.80;;;24.30;50.10;;;;;;5011931;28;20025;-56
2023/06/12 22:57:55;;;;;;;8.25;3.78;;;24.30;50.00;;;;;;5011665;28;20034;-56
2023/06/12 23:00:21;;;;;;;9.00;3.83;;;24.30;50.00;;;;;;5010691;28;20037;-57
2023/06/12 23:02:48;;;;;;;8.07;3.60;;;24.30;50.10;;;;;;5010428;28;20033;-54
2023/06/12 23:05:15;;;;;;;15.32;3.90;;;24.30;50.10;;;;;;5011729;28;20026;-56
2023/06/12 23:07:42;;;;;;;11.98;4.20;;;24.30;50.30;;;;;;5011305;28;20030;-55
2023/06/12 23:10:10;;;;;;;31.10;4.43;;;24.20;50.10;;;;;;5011461;28;20030;-55
2023/06/12 23:12:36;;;;;;;10.43;3.80;;;24.20;50.10;;;;;;5011462;28;20401;-56
2023/06/12 23:15:02;;;;;;;11.38;3.78;;;24.20;50.10;;;;;;5011682;28;20033;-57
2023/06/12 23:17:30;;;;;;;8.23;3.55;;;24.20;50.10;;;;;;5011140;28;20561;-57
2023/06/12 23:20:01;;;;;;;9.65;3.92;;;24.20;50.20;;;;;;5011716;28;20057;-55
2023/06/12 23:22:29;;;;;;;16.52;3.45;;;24.20;50.20;;;;;;5010430;28;20160;-55
2023/06/12 23:24:56;;;;;;;16.48;3.53;;;24.20;50.30;;;;;;5011514;28;20056;-57
2023/06/12 23:27:24;;;;;;;11.23;3.70;;;24.20;50.20;;;;;;5011201;28;20030;-57
2023/06/12 23:29:51;;;;;;;15.57;3.97;;;24.20;50.30;;;;;;5011278;28;20080;-57
2023/06/12 23:32:18;;;;;;;15.43;3.88;;;24.20;50.30;;;;;;5031662;23;20042;-57
2023/06/12 23:34:44;;;;;;;9.10;3.63;;;24.20;50.50;;;;;;5011622;28;20025;-55
2023/06/12 23:37:11;;;;;;;9.38;3.45;;;24.20;50.30;;;;;;5011316;28;20033;-55
2023/06/12 23:39:37;;;;;;;11.70;3.45;;;24.20;50.30;;;;;;5011828;28;20037;-56
2023/06/12 23:42:06;;;;;;;9.10;3.67;;;24.20;50.40;;;;;;5011489;28;20040;-56
2023/06/12 23:44:33;;;;;;;7.37;3.83;;;24.20;50.30;;;;;;5011892;28;20029;-56
2023/06/12 23:47:00;;;;;;;16.23;3.53;;;24.20;50.70;;;;;;5011350;28;20039;-54
2023/06/12 23:49:29;;;;;;;10.80;3.28;;;24.20;50.60;;;;;;5011659;28;20030;-56
2023/06/12 23:51:56;;;;;;;12.07;3.60;;;24.20;50.30;;;;;;5011708;28;20026;-54
2023/06/12 23:54:23;;;;;;;7.55;3.20;;;24.20;50.40;;;;;;4993929;28;20441;-54
2023/06/12 23:56:50;;;;;;;12.60;3.45;;;24.20;50.30;;;;;;5011274;28;20034;-56
2023/06/12 23:59:17;;;;;;;8.18;3.45;;;24.20;50.40;;;;;;5011871;28;20032;-56
